Time;durP1;ratioP1;P1;durP2;ratioP2;P2;SDS_P1;SDS_P2;PMS_P1;PMS_P2;Temp;Humidity;BMP_temperature;BMP_pressure;BME280_temperature;BME280_humidity;BME280_pressure;Samples;Min_cycle;Max_cycle;Signal;HPM_P1;HPM_P2
2022/01/07 00:00:05;;;;;;;65.93;28.05;;;-2.70;99.90;;;;;;6212130;23;20032;-82
2022/01/07 00:02:57;;;;;;;54.30;23.25;;;-2.70;99.90;;;;;;6212801;23;20029;-82
2022/01/07 00:05:52;;;;;;;61.35;25.95;;;-2.60;99.90;;;;;;6215128;22;20036;-82
2022/01/07 00:08:39;;;;;;;45.50;20.80;;;-2.50;99.90;;;;;;6191934;23;20024;-83
2022/01/07 00:11:26;;;;;;;47.72;20.58;;;-2.50;99.90;;;;;;6214171;23;20099;-80
2022/01/07 00:14:14;;;;;;;40.83;19.55;;;-2.50;99.90;;;;;;6191937;23;20063;-82
2022/01/07 00:17:01;;;;;;;49.50;20.75;;;-2.50;99.90;;;;;;6194396;23;20032;-82
2022/01/07 00:19:48;;;;;;;40.03;20.58;;;-2.50;99.90;;;;;;6234936;23;20108;-83
2022/01/07 00:22:40;;;;;;;49.63;21.50;;;-2.60;99.90;;;;;;6191220;23;20052;-82
2022/01/07 00:25:29;;;;;;;55.07;21.73;;;-2.60;99.90;;;;;;6212865;23;20039;-81
2022/01/07 00:28:18;;;;;;;45.25;20.90;;;-2.70;99.90;;;;;;6213340;23;20029;-81
2022/01/07 00:31:06;;;;;;;45.03;20.85;;;-2.80;99.90;;;;;;6213494;23;20024;-82
2022/01/07 00:33:53;;;;;;;39.75;18.25;;;-2.90;99.90;;;;;;6189286;23;20077;-82
2022/01/07 00:36:41;;;;;;;46.92;19.17;;;-3.00;99.90;;;;;;6213422;23;20025;-83
2022/01/07 00:39:28;;;;;;;33.95;18.13;;;-3.10;99.90;;;;;;6213362;23;20043;-80
2022/01/07 00:42:16;;;;;;;39.33;17.23;;;-3.10;99.90;;;;;;6235632;23;20056;-81
2022/01/07 00:45:04;;;;;;;38.38;17.40;;;-3.10;99.90;;;;;;6215300;23;20025;-81
2022/01/07 00:47:56;;;;;;;40.53;18.20;;;-3.20;99.90;;;;;;6212928;23;20448;-81
2022/01/07 00:50:44;;;;;;;43.80;18.52;;;-3.20;99.90;;;;;;6213875;23;20032;-82
2022/01/07 00:53:31;;;;;;;40.45;19.40;;;-3.10;99.90;;;;;;6235706;22;20032;-82
2022/01/07 00:56:19;;;;;;;49.15;18.48;;;-2.90;99.90;;;;;;6194068;23;20094;-82
2022/01/07 00:59:07;;;;;;;39.10;18.92;;;-2.90;99.90;;;;;;6194099;23;20135;-83
2022/01/07 01:01:57;;;;;;;41.22;19.33;;;-2.90;99.90;;;;;;6193043;23;20028;-82
2022/01/07 01:05:01;;;;;;;42.90;19.58;;;-2.80;99.90;;;;;;6215094;23;20031;-83
2022/01/07 01:07:49;;;;;;;50.45;20.50;;;-2.80;99.90;;;;;;6213675;23;20039;-81
2022/01/07 01:10:39;;;;;;;51.42;22.90;;;-2.70;99.90;;;;;;6189981;23;20534;-81
2022/01/07 01:13:26;;;;;;;46.80;23.73;;;-2.60;99.90;;;;;;6213878;23;20044;-81
2022/01/07 01:16:17;;;;;;;49.33;24.08;;;-2.50;99.90;;;;;;6213799;23;20033;-83
2022/01/07 01:19:06;;;;;;;47.17;22.95;;;-2.40;99.90;;;;;;6212839;23;20029;-84
2022/01/07 01:21:56;;;;;;;49.08;23.60;;;-2.40;99.90;;;;;;6211487;23;20025;-81
2022/01/07 01:24:43;;;;;;;42.13;22.95;;;-2.50;99.90;;;;;;6212757;23;20328;-81
2022/01/07 01:27:30;;;;;;;48.13;23.48;;;-2.50;99.90;;;;;;6213208;23;20055;-84
2022/01/07 01:30:21;;;;;;;44.55;22.70;;;-2.50;99.90;;;;;;6213211;23;20028;-82
2022/01/07 01:33:11;;;;;;;43.53;21.90;;;-2.60;99.90;;;;;;6217328;23;20028;-81
2022/01/07 01:35:59;;;;;;;47.92;22.48;;;-2.70;99.90;;;;;;6193948;23;20381;-84
2022/01/07 01:38:49;;;;;;;46.80;23.35;;;-2.70;99.90;;;;;;6212469;23;20035;-82
2022/01/07 01:41:36;;;;;;;48.45;22.88;;;-2.80;99.90;;;;;;6214054;23;20455;-84
2022/01/07 01:44:25;;;;;;;46.85;21.55;;;-2.80;99.90;;;;;;6212515;23;20025;-80
2022/01/07 01:47:12;;;;;;;50.92;21.88;;;-2.90;99.90;;;;;;6211949;23;20182;-83
2022/01/07 01:49:59;;;;;;;46.35;21.75;;;-3.00;99.90;;;;;;6190628;23;20032;-81
2022/01/07 01:52:50;;;;;;;40.97;22.42;;;-3.10;99.90;;;;;;6189841;23;20051;-82
2022/01/07 01:55:37;;;;;;;57.92;22.00;;;-3.10;99.90;;;;;;6212453;23;20067;-81
2022/01/07 01:58:25;;;;;;;46.90;20.85;;;-3.10;99.90;;;;;;6213008;23;20087;-82
2022/01/07 02:01:12;;;;;;;41.00;19.40;;;-3.10;99.90;;;;;;6211850;23;20029;-79
2022/01/07 02:04:00;;;;;;;40.78;18.60;;;-3.10;99.90;;;;;;6232737;23;20021;-82
2022/01/07 02:06:48;;;;;;;36.90;18.35;;;-3.10;99.90;;;;;;6212300;23;20051;-81
2022/01/07 02:09:36;;;;;;;42.05;19.95;;;-3.10;99.90;;;;;;6234376;23;20036;-81
2022/01/07 02:12:27;;;;;;;39.60;18.42;;;-3.00;99.90;;;;;;6214042;23;20439;-81
2022/01/07 02:15:15;;;;;;;35.88;17.98;;;-3.00;99.90;;;;;;6214587;23;20083;-82
2022/01/07 02:18:03;;;;;;;40.88;19.05;;;-3.10;99.90;;;;;;6213564;23;20112;-82
2022/01/07 02:20:52;;;;;;;50.05;22.05;;;-3.20;99.90;;;;;;6192070;23;20040;-82
2022/01/07 02:23:40;;;;;;;42.97;20.40;;;-3.30;99.90;;;;;;6192893;23;20020;-80
2022/01/07 02:26:31;;;;;;;34.88;18.75;;;-3.40;99.90;;;;;;6212216;23;20448;-83
2022/01/07 02:29:19;;;;;;;43.97;19.02;;;-3.40;99.90;;;;;;6214850;23;20090;-82
2022/01/07 02:32:07;;;;;;;43.33;19.02;;;-3.30;99.90;;;;;;6215136;22;20104;-82
2022/01/07 02:34:54;;;;;;;39.83;19.52;;;-3.20;99.90;;;;;;6170495;23;20029;-83
2022/01/07 02:37:41;;;;;;;36.70;19.42;;;-3.00;99.90;;;;;;6170664;23;20031;-81
2022/01/07 02:40:29;;;;;;;36.38;18.67;;;-2.90;99.90;;;;;;6190807;23;20103;-82
2022/01/07 02:43:19;;;;;;;34.95;18.20;;;-2.90;99.90;;;;;;6211295;23;20325;-81
2022/01/07 02:46:22;;;;;;;37.10;17.05;;;-2.90;99.90;;;;;;5170974;27;20389;-82
2022/01/07 02:49:11;;;;;;;39.47;19.33;;;-2.70;99.90;;;;;;5120511;27;20051;-81
2022/01/07 02:51:59;;;;;;;32.97;17.25;;;-2.70;99.90;;;;;;5136253;27;20493;-82
2022/01/07 02:54:46;;;;;;;35.60;16.33;;;-2.70;99.90;;;;;;5137376;27;20047;-82
2022/01/07 02:57:33;;;;;;;28.95;14.95;;;-2.60;99.90;;;;;;5132429;27;20066;-81
2022/01/07 03:00:23;;;;;;;25.27;14.10;;;-2.60;99.90;;;;;;5126121;27;20387;-82
2022/01/07 03:03:11;;;;;;;34.53;15.00;;;-2.60;99.90;;;;;;5136931;27;20079;-81
2022/01/07 03:05:59;;;;;;;29.98;15.25;;;-2.60;99.90;;;;;;5154800;27;20076;-82
2022/01/07 03:08:47;;;;;;;33.08;14.55;;;-2.60;99.90;;;;;;5143896;27;20063;-84
2022/01/07 03:11:34;;;;;;;27.65;15.35;;;-2.70;99.90;;;;;;5134291;27;20156;-84
2022/01/07 03:14:22;;;;;;;29.48;15.07;;;-2.60;99.90;;;;;;5113538;28;20474;-83
2022/01/07 03:17:09;;;;;;;30.92;14.85;;;-2.60;99.90;;;;;;5120588;27;20043;-79
2022/01/07 03:20:00;;;;;;;26.52;14.10;;;-2.60;99.90;;;;;;5132801;27;20100;-82
2022/01/07 03:22:48;;;;;;;33.85;15.32;;;-2.60;99.90;;;;;;5133761;27;20395;-83
2022/01/07 03:25:35;;;;;;;30.20;15.27;;;-2.60;99.90;;;;;;5136457;27;20055;-82
2022/01/07 03:28:22;;;;;;;30.00;14.45;;;-2.70;99.90;;;;;;5129518;27;20090;-81
2022/01/07 03:31:12;;;;;;;31.17;15.98;;;-2.60;99.90;;;;;;5146871;27;20050;-81
2022/01/07 03:34:02;;;;;;;32.90;16.38;;;-2.70;99.90;;;;;;5136394;27;20119;-82
2022/01/07 03:36:52;;;;;;;33.00;16.77;;;-2.70;99.90;;;;;;5149726;27;20148;-82
2022/01/07 03:39:40;;;;;;;32.58;17.17;;;-2.70;99.90;;;;;;5136154;27;20058;-82
2022/01/07 03:42:28;;;;;;;36.25;18.00;;;-2.80;99.90;;;;;;5141139;27;20578;-82
2022/01/07 03:45:18;;;;;;;37.83;17.60;;;-2.80;99.90;;;;;;5140298;27;20078;-82
2022/01/07 03:48:09;;;;;;;34.22;17.55;;;-2.80;99.90;;;;;;5141570;27;20064;-84
2022/01/07 03:50:57;;;;;;;35.10;17.63;;;-2.90;99.90;;;;;;5144291;27;20038;-83
2022/01/07 03:53:45;;;;;;;42.47;18.55;;;-2.90;99.90;;;;;;5117712;27;20047;-83
2022/01/07 03:56:34;;;;;;;33.00;17.10;;;-2.90;99.90;;;;;;5105953;27;20043;-83
2022/01/07 03:59:21;;;;;;;45.35;19.55;;;-3.00;99.90;;;;;;5119412;27;20440;-82
2022/01/07 04:02:09;;;;;;;39.92;18.23;;;-3.00;99.90;;;;;;5121123;27;20057;-81
2022/01/07 04:04:57;;;;;;;37.92;18.95;;;-3.00;99.90;;;;;;5102540;27;20139;-82
2022/01/07 04:07:44;;;;;;;41.53;19.27;;;-2.90;99.90;;;;;;5113917;27;20051;-83
2022/01/07 04:10:31;;;;;;;47.70;19.50;;;-2.90;99.90;;;;;;5116547;27;20066;-83
2022/01/07 04:13:21;;;;;;;47.30;20.58;;;-3.00;99.90;;;;;;5122625;27;20073;-83
2022/01/07 04:16:09;;;;;;;46.63;19.13;;;-3.00;99.90;;;;;;5133288;27;20038;-82
2022/01/07 04:18:57;;;;;;;43.20;18.42;;;-3.00;99.90;;;;;;5104164;27;20067;-81
2022/01/07 04:21:46;;;;;;;43.03;18.23;;;-3.00;99.90;;;;;;5117738;27;20129;-82
2022/01/07 04:24:36;;;;;;;51.13;18.58;;;-2.90;99.90;;;;;;5118738;27;20137;-81
2022/01/07 04:27:23;;;;;;;45.17;20.50;;;-3.00;99.90;;;;;;5116649;27;20043;-82
2022/01/07 04:30:12;;;;;;;41.58;19.65;;;-2.90;99.90;;;;;;5119032;27;20046;-82
2022/01/07 04:33:01;;;;;;;45.40;19.35;;;-2.90;99.90;;;;;;5117982;27;20096;-81
2022/01/07 04:35:49;;;;;;;43.08;19.83;;;-2.90;99.90;;;;;;5096101;27;20117;-83
2022/01/07 04:38:36;;;;;;;45.08;19.73;;;-2.90;99.90;;;;;;5087473;27;20058;-81
2022/01/07 04:41:25;;;;;;;45.83;19.83;;;-2.80;99.90;;;;;;5119674;27;20471;-82
2022/01/07 04:44:16;;;;;;;46.83;20.20;;;-2.80;99.90;;;;;;5107841;27;20055;-83
2022/01/07 04:47:08;;;;;;;49.67;21.00;;;-2.80;99.90;;;;;;5092946;28;20440;-83
2022/01/07 04:49:55;;;;;;;50.65;21.75;;;-2.80;99.90;;;;;;5105228;27;20383;-83
2022/01/07 04:52:44;;;;;;;43.97;20.30;;;-2.70;99.90;;;;;;5127221;27;20120;-83
2022/01/07 04:55:39;;;;;;;48.55;19.63;;;-2.70;99.90;;;;;;5116064;27;20050;-82
2022/01/07 04:58:26;;;;;;;42.88;19.70;;;-2.60;99.90;;;;;;5100854;27;20040;-84
2022/01/07 05:01:14;;;;;;;47.72;19.35;;;-2.50;99.90;;;;;;5109876;27;20103;-81
2022/01/07 05:04:05;;;;;;;47.72;21.25;;;-2.50;99.90;;;;;;5116678;27;20039;-82
2022/01/07 05:06:55;;;;;;;44.03;20.38;;;-2.50;99.90;;;;;;5099178;28;20044;-84
2022/01/07 05:09:43;;;;;;;45.33;20.30;;;-2.50;99.90;;;;;;5076038;27;20096;-83
2022/01/07 05:12:30;;;;;;;50.28;21.38;;;-2.50;99.90;;;;;;5116750;27;20043;-83
2022/01/07 05:15:20;;;;;;;44.90;19.50;;;-2.50;99.90;;;;;;5094739;27;20050;-84
2022/01/07 05:18:10;;;;;;;41.25;19.45;;;-2.50;99.90;;;;;;5116583;27;20377;-83
2022/01/07 05:20:58;;;;;;;37.78;19.70;;;-2.50;99.90;;;;;;5104282;28;20050;-81
2022/01/07 05:23:45;;;;;;;44.80;19.20;;;-2.40;99.90;;;;;;5103685;27;20069;-84
2022/01/07 05:26:33;;;;;;;47.58;19.75;;;-2.40;99.90;;;;;;5117972;27;20040;-83
2022/01/07 05:29:22;;;;;;;43.50;19.25;;;-2.40;99.90;;;;;;5127228;27;20039;-84
2022/01/07 05:32:09;;;;;;;44.70;19.10;;;-2.40;99.90;;;;;;5099176;27;20078;-83
2022/01/07 05:34:58;;;;;;;40.83;18.02;;;-2.40;99.90;;;;;;5124246;27;20054;-83
2022/01/07 05:37:45;;;;;;;45.03;20.77;;;-2.40;99.90;;;;;;5106790;27;20487;-83
2022/01/07 05:40:32;;;;;;;42.55;19.40;;;-2.50;99.90;;;;;;5117545;27;20040;-83
2022/01/07 05:43:21;;;;;;;45.60;19.73;;;-2.40;99.90;;;;;;5113603;27;20116;-82
2022/01/07 05:46:11;;;;;;;48.45;20.48;;;-2.50;99.90;;;;;;5096693;28;20145;-84
2022/01/07 05:48:59;;;;;;;39.10;18.52;;;-2.50;99.90;;;;;;5095316;28;20045;-82
2022/01/07 05:51:46;;;;;;;50.45;20.50;;;-2.40;99.90;;;;;;5123981;27;20093;-82
2022/01/07 05:54:36;;;;;;;40.88;18.65;;;-2.40;99.90;;;;;;5106646;27;20048;-84
2022/01/07 05:57:27;;;;;;;43.63;20.00;;;-2.40;99.90;;;;;;5111063;28;20055;-83
2022/01/07 06:00:18;;;;;;;47.92;19.60;;;-2.40;99.90;;;;;;5111061;28;20047;-83
2022/01/07 06:03:05;;;;;;;46.83;20.90;;;-2.40;99.90;;;;;;5108836;28;20063;-82
2022/01/07 06:05:55;;;;;;;47.38;20.80;;;-2.40;99.90;;;;;;5109012;27;20495;-82
2022/01/07 06:08:42;;;;;;;40.90;19.67;;;-2.40;99.90;;;;;;5096206;28;20061;-82
2022/01/07 06:11:33;;;;;;;40.55;18.60;;;-2.40;99.90;;;;;;5098914;27;20052;-84
2022/01/07 06:14:23;;;;;;;47.08;20.67;;;-2.30;99.90;;;;;;5110942;28;20067;-84
2022/01/07 06:17:13;;;;;;;44.78;20.77;;;-2.30;99.90;;;;;;5094230;28;20199;-81
2022/01/07 06:20:03;;;;;;;42.97;19.55;;;-2.30;99.90;;;;;;5107446;28;20047;-83
2022/01/07 06:22:53;;;;;;;42.95;20.30;;;-2.30;99.90;;;;;;5125629;27;20043;-82
2022/01/07 06:25:44;;;;;;;40.72;18.92;;;-2.30;99.90;;;;;;5105098;28;20066;-83
2022/01/07 06:28:31;;;;;;;40.90;19.48;;;-2.30;99.90;;;;;;5107228;28;20062;-82
2022/01/07 06:31:19;;;;;;;39.40;18.50;;;-2.20;99.90;;;;;;5085998;28;20040;-83
2022/01/07 06:34:06;;;;;;;38.00;18.52;;;-2.10;99.90;;;;;;5118237;28;20085;-82
2022/01/07 06:36:53;;;;;;;38.67;19.77;;;-2.10;99.90;;;;;;5104032;27;20042;-83
2022/01/07 06:39:40;;;;;;;36.65;18.50;;;-2.10;99.90;;;;;;5123592;27;20078;-81
2022/01/07 06:42:28;;;;;;;41.55;18.80;;;-2.10;99.90;;;;;;5098305;28;20093;-82
2022/01/07 06:45:18;;;;;;;41.10;18.88;;;-2.10;99.90;;;;;;5079521;28;20189;-82
2022/01/07 06:48:06;;;;;;;45.47;17.75;;;-2.10;99.90;;;;;;5109045;28;20130;-81
2022/01/07 06:50:53;;;;;;;41.30;19.27;;;-2.20;99.90;;;;;;5106884;28;20032;-83
2022/01/07 07:15:28;;;;;;;40.22;18.48;;;-2.10;99.90;;;;;;4904950;29;20426;-83
2022/01/07 07:23:28;;;;;;;38.05;18.27;;;-2.00;99.90;;;;;;4968217;28;20031;-82
2022/01/07 07:26:18;;;;;;;37.72;17.92;;;-2.00;99.90;;;;;;5098920;28;20551;-83
2022/01/07 07:29:05;;;;;;;42.33;18.92;;;-2.00;99.90;;;;;;5128577;27;20536;-79
2022/01/07 07:31:56;;;;;;;45.92;20.23;;;-1.90;99.90;;;;;;5138273;27;20066;-82
2022/01/07 07:34:56;;;;;;;34.95;17.83;;;-1.90;99.90;;;;;;5104691;27;20043;-80
2022/01/07 07:37:43;;;;;;;39.38;17.95;;;-1.90;99.90;;;;;;5135531;27;20046;-80
2022/01/07 07:40:33;;;;;;;32.17;15.68;;;-1.90;99.90;;;;;;5121870;27;20054;-81
2022/01/07 07:43:20;;;;;;;34.95;17.52;;;-1.80;99.90;;;;;;5132070;27;20042;-81
2022/01/07 07:46:13;;;;;;;38.03;17.80;;;-1.80;99.90;;;;;;5093635;27;20071;-80
2022/01/07 07:49:05;;;;;;;37.63;16.25;;;-1.80;99.90;;;;;;5117567;27;20043;-82
2022/01/07 07:51:53;;;;;;;38.30;16.98;;;-1.80;99.90;;;;;;5119720;27;20065;-82
2022/01/07 07:54:40;;;;;;;29.15;15.95;;;-1.70;99.90;;;;;;5108061;28;20098;-81
2022/01/07 07:57:33;;;;;;;31.00;16.77;;;-1.70;99.90;;;;;;5113122;27;20499;-84
2022/01/07 08:00:20;;;;;;;31.08;16.33;;;-1.60;99.90;;;;;;5108404;27;20103;-82
2022/01/07 08:03:13;;;;;;;34.45;16.55;;;-1.50;99.90;;;;;;5118032;27;20043;-80
2022/01/07 08:06:03;;;;;;;30.92;16.90;;;-1.40;99.90;;;;;;5118473;27;20110;-80
2022/01/07 08:08:53;;;;;;;34.45;16.13;;;-1.40;99.90;;;;;;5120207;27;20054;-81
2022/01/07 08:11:57;;;;;;;36.60;16.77;;;-1.40;99.90;;;;;;5096916;28;20195;-80
2022/01/07 08:17:51;;;;;;;31.10;15.95;;;-1.40;99.90;;;;;;5107906;27;20130;-80
2022/01/07 08:20:39;;;;;;;26.30;15.13;;;-1.40;99.90;;;;;;5108454;27;20153;-81
2022/01/07 08:23:26;;;;;;;31.67;14.82;;;-1.30;99.90;;;;;;5118200;27;20034;-81
2022/01/07 08:26:16;;;;;;;33.40;16.15;;;-1.30;99.90;;;;;;5117038;27;20035;-84
2022/01/07 08:29:07;;;;;;;30.75;16.05;;;-1.30;99.90;;;;;;5112900;27;20081;-81
2022/01/07 08:35:04;;;;;;;27.75;14.10;;;-1.20;99.90;;;;;;5129190;27;20061;-81
2022/01/07 08:37:54;;;;;;;26.73;13.95;;;-1.20;99.90;;;;;;5125623;27;20047;-80
2022/01/07 08:40:41;;;;;;;26.00;12.65;;;-1.10;99.90;;;;;;5100299;27;20074;-82
2022/01/07 08:43:28;;;;;;;28.55;14.07;;;-1.10;99.90;;;;;;5116218;27;20059;-83
2022/01/07 08:46:16;;;;;;;31.65;14.10;;;-1.00;99.90;;;;;;5118536;27;20589;-80
2022/01/07 08:49:05;;;;;;;31.25;13.43;;;-1.00;99.90;;;;;;5119035;27;20051;-81
2022/01/07 08:51:55;;;;;;;31.85;14.43;;;-1.00;99.90;;;;;;5130914;27;20071;-80
2022/01/07 08:54:48;;;;;;;25.02;13.68;;;-1.00;99.90;;;;;;5110613;27;20109;-81
2022/01/07 08:57:35;;;;;;;23.92;13.18;;;-1.00;99.90;;;;;;5101228;27;20099;-83
2022/01/07 09:00:24;;;;;;;27.27;14.25;;;-0.90;99.90;;;;;;5115870;27;20119;-80
2022/01/07 09:03:11;;;;;;;27.05;14.13;;;-0.90;99.90;;;;;;5118070;27;20047;-81
2022/01/07 09:06:00;;;;;;;29.33;14.80;;;-0.90;99.90;;;;;;5123580;27;20443;-82
2022/01/07 09:08:50;;;;;;;34.10;15.25;;;-0.90;99.90;;;;;;5120736;27;20039;-80
2022/01/07 09:11:39;;;;;;;28.23;15.27;;;-0.90;99.90;;;;;;5115131;27;20038;-83
2022/01/07 09:14:27;;;;;;;32.60;14.40;;;-0.80;99.90;;;;;;5115806;27;20055;-81
2022/01/07 09:17:17;;;;;;;26.58;15.70;;;-0.80;99.90;;;;;;5133166;27;20042;-82
2022/01/07 09:20:06;;;;;;;28.50;15.13;;;-0.70;99.90;;;;;;5112452;27;20556;-79
2022/01/07 09:22:53;;;;;;;27.65;13.93;;;-0.70;99.90;;;;;;5117966;27;20438;-83
2022/01/07 09:25:41;;;;;;;34.90;16.35;;;-0.70;99.90;;;;;;5120659;27;20114;-82
2022/01/07 09:28:29;;;;;;;27.95;15.18;;;-0.60;99.90;;;;;;5107000;27;20051;-84
2022/01/07 09:31:17;;;;;;;28.02;13.50;;;-0.60;99.90;;;;;;5100107;27;20051;-83
2022/01/07 09:34:07;;;;;;;27.67;13.07;;;-0.60;99.90;;;;;;5129238;27;20043;-80
2022/01/07 09:37:14;;;;;;;25.98;12.88;;;-0.50;99.90;;;;;;5113040;27;20043;-81
2022/01/07 09:40:02;;;;;;;24.00;13.95;;;-0.50;99.90;;;;;;5105230;27;20051;-81
2022/01/07 09:42:58;;;;;;;28.63;14.00;;;-0.40;99.90;;;;;;5118628;27;20120;-82
2022/01/07 09:45:46;;;;;;;26.42;14.18;;;-0.40;99.90;;;;;;5137194;27;20059;-80
2022/01/07 09:48:35;;;;;;;20.92;12.18;;;-0.30;99.90;;;;;;5096479;28;20132;-81
2022/01/07 09:51:27;;;;;;;25.52;12.63;;;-0.30;99.90;;;;;;5124974;27;20043;-82
2022/01/07 09:54:15;;;;;;;27.17;12.43;;;-0.30;99.90;;;;;;5110155;27;20039;-81
2022/01/07 09:57:07;;;;;;;26.70;12.95;;;-0.30;99.90;;;;;;5130228;27;20043;-81
2022/01/07 09:59:54;;;;;;;26.35;13.20;;;-0.30;99.90;;;;;;5140413;27;20095;-81
2022/01/07 10:03:09;;;;;;;29.20;13.20;;;-0.20;99.90;;;;;;5132624;27;20118;-80
2022/01/07 10:05:56;;;;;;;25.52;13.27;;;-0.30;99.90;;;;;;5119084;27;20043;-82
2022/01/07 10:08:44;;;;;;;24.13;13.43;;;-0.30;99.90;;;;;;5114610;27;20171;-81
2022/01/07 10:11:34;;;;;;;23.88;12.50;;;-0.30;99.90;;;;;;5124928;27;20046;-81
2022/01/07 10:14:30;;;;;;;30.45;14.15;;;-0.30;99.90;;;;;;5117163;27;20486;-83
2022/01/07 10:17:17;;;;;;;27.67;13.57;;;-0.30;99.90;;;;;;5123005;27;20047;-82
2022/01/07 10:20:05;;;;;;;25.35;12.93;;;-0.30;99.90;;;;;;5121455;27;20066;-82
2022/01/07 10:23:26;;;;;;;28.35;13.55;;;-0.30;99.90;;;;;;5137847;27;20108;-83
2022/01/07 10:26:15;;;;;;;32.67;13.82;;;-0.30;99.90;;;;;;5129179;27;20047;-82
2022/01/07 10:29:28;;;;;;;24.38;13.40;;;-0.30;99.90;;;;;;5117297;27;20059;-80
2022/01/07 10:32:23;;;;;;;30.95;15.18;;;-0.30;99.90;;;;;;5119676;27;20042;-80
2022/01/07 10:35:19;;;;;;;27.70;14.50;;;-0.30;99.90;;;;;;5120323;27;20106;-81
2022/01/07 10:38:06;;;;;;;28.35;14.00;;;-0.20;99.90;;;;;;5123607;27;20103;-82
2022/01/07 10:40:59;;;;;;;25.85;13.80;;;-0.20;99.90;;;;;;5127150;27;20143;-80
2022/01/07 10:43:48;;;;;;;23.55;12.35;;;-0.10;99.90;;;;;;5130220;27;20051;-78
2022/01/07 10:46:39;;;;;;;25.33;12.77;;;-0.10;99.90;;;;;;5128546;28;20066;-82
2022/01/07 10:49:35;;;;;;;24.05;13.25;;;0.00;99.90;;;;;;5112327;27;20474;-84
2022/01/07 10:52:24;;;;;;;26.13;13.15;;;0.00;99.90;;;;;;5115496;27;20039;-82
2022/01/07 10:55:15;;;;;;;24.13;13.25;;;0.00;99.90;;;;;;5116908;28;20093;-81
2022/01/07 10:58:08;;;;;;;28.60;13.50;;;-0.10;99.90;;;;;;5143898;27;20043;-79
2022/01/07 11:01:00;;;;;;;29.83;14.65;;;-0.10;99.90;;;;;;5091161;27;20037;-82
2022/01/07 11:03:59;;;;;;;25.88;13.68;;;-0.10;99.90;;;;;;5117023;27;20486;-81
2022/01/07 11:06:53;;;;;;;25.92;14.15;;;-0.10;99.90;;;;;;5122400;27;20095;-81
2022/01/07 11:09:54;;;;;;;27.75;12.80;;;-0.10;99.90;;;;;;5106253;27;20140;-82
2022/01/07 11:12:41;;;;;;;21.15;13.90;;;-0.10;99.90;;;;;;5129374;27;20095;-82
2022/01/07 11:15:31;;;;;;;31.10;16.17;;;0.00;99.90;;;;;;5084860;27;20048;-83
2022/01/07 11:18:19;;;;;;;29.73;15.43;;;0.00;99.90;;;;;;5130764;27;20104;-82
2022/01/07 11:21:11;;;;;;;22.73;13.00;;;0.10;99.90;;;;;;5095187;27;20039;-81
2022/01/07 11:23:58;;;;;;;24.02;14.48;;;0.10;99.90;;;;;;5113766;27;20160;-79
2022/01/07 11:27:04;;;;;;;27.05;13.70;;;0.20;99.90;;;;;;5099492;27;20372;-79
2022/01/07 11:30:01;;;;;;;26.77;13.05;;;0.30;99.90;;;;;;5117433;27;20043;-82
2022/01/07 11:32:51;;;;;;;24.20;12.85;;;0.40;99.90;;;;;;5107752;28;20204;-81
2022/01/07 11:35:44;;;;;;;22.02;12.63;;;0.50;99.90;;;;;;5135669;27;20058;-82
2022/01/07 11:38:40;;;;;;;21.42;12.30;;;0.50;99.90;;;;;;5114852;27;20055;-82
2022/01/07 11:41:51;;;;;;;20.65;12.18;;;0.70;99.90;;;;;;5123189;27;20423;-82
2022/01/07 11:44:38;;;;;;;23.25;11.88;;;0.90;99.90;;;;;;5105618;27;20140;-82
2022/01/07 11:47:28;;;;;;;19.70;11.10;;;1.00;99.90;;;;;;5109611;27;20127;-80
2022/01/07 11:50:18;;;;;;;14.90;8.90;;;1.10;99.90;;;;;;5115279;27;20541;-86
2022/01/07 11:53:06;;;;;;;24.25;11.38;;;1.00;99.90;;;;;;5128214;27;20340;-87
2022/01/07 11:56:04;;;;;;;21.52;12.02;;;1.10;99.90;;;;;;5118324;27;20031;-85
2022/01/07 11:59:20;;;;;;;17.52;10.65;;;1.00;99.90;;;;;;5114531;27;20069;-82
2022/01/07 12:02:09;;;;;;;22.98;11.73;;;0.90;99.90;;;;;;5131101;27;20135;-83
2022/01/07 12:05:29;;;;;;;17.63;10.75;;;0.80;99.90;;;;;;5121650;27;20046;-81
2022/01/07 12:08:17;;;;;;;18.58;11.35;;;0.80;99.90;;;;;;5119688;27;20476;-83
2022/01/07 12:11:09;;;;;;;19.30;11.25;;;0.80;99.90;;;;;;5118167;27;20035;-83
2022/01/07 12:14:00;;;;;;;21.42;11.68;;;0.70;99.90;;;;;;5118313;27;20065;-82
2022/01/07 12:16:50;;;;;;;16.65;9.82;;;0.70;99.90;;;;;;5109432;27;20046;-82
2022/01/07 12:19:40;;;;;;;19.38;10.57;;;0.70;99.90;;;;;;5113497;27;20424;-82
2022/01/07 12:22:29;;;;;;;19.08;10.27;;;0.70;99.90;;;;;;5129359;27;20139;-80
2022/01/07 12:25:22;;;;;;;18.10;10.13;;;0.70;99.90;;;;;;5128970;27;20043;-82
2022/01/07 12:28:13;;;;;;;16.98;10.18;;;0.70;99.90;;;;;;5102806;27;20387;-83
2022/01/07 12:31:13;;;;;;;20.23;11.05;;;0.80;99.90;;;;;;5132286;27;20043;-83
2022/01/07 12:34:02;;;;;;;16.80;10.52;;;0.70;99.90;;;;;;5110050;27;20340;-83
2022/01/07 12:36:55;;;;;;;15.70;9.70;;;0.80;99.90;;;;;;5112847;27;20391;-82
2022/01/07 12:39:49;;;;;;;16.40;8.90;;;0.90;99.90;;;;;;5114055;27;20039;-82
2022/01/07 12:42:40;;;;;;;15.15;9.13;;;1.10;99.90;;;;;;5108122;27;20055;-84
2022/01/07 12:45:27;;;;;;;13.45;8.27;;;1.20;99.90;;;;;;5116272;27;20055;-81
2022/01/07 12:48:17;;;;;;;12.02;7.68;;;1.40;99.90;;;;;;5114671;27;20050;-82
2022/01/07 12:51:06;;;;;;;12.75;8.80;;;1.60;99.90;;;;;;5119228;27;20047;-82
2022/01/07 12:54:05;;;;;;;12.73;8.05;;;1.40;99.90;;;;;;5115403;27;20067;-81
2022/01/07 12:56:52;;;;;;;18.67;8.82;;;1.40;99.90;;;;;;5118583;27;20071;-83
2022/01/07 12:59:39;;;;;;;14.80;8.30;;;1.40;99.90;;;;;;5104410;27;20158;-82
2022/01/07 13:02:31;;;;;;;16.40;7.82;;;1.40;99.90;;;;;;5121180;27;20054;-83
2022/01/07 13:05:22;;;;;;;13.80;7.80;;;1.50;99.90;;;;;;5091155;27;20152;-80
2022/01/07 13:08:15;;;;;;;15.75;9.32;;;1.60;99.90;;;;;;5135146;27;20145;-81
2022/01/07 13:11:02;;;;;;;13.65;8.25;;;1.60;99.90;;;;;;5134666;27;20040;-81
2022/01/07 13:14:09;;;;;;;12.25;8.60;;;1.50;99.90;;;;;;5116555;27;20090;-82
2022/01/07 13:17:03;;;;;;;16.10;9.77;;;1.40;99.90;;;;;;5107620;27;20494;-84
2022/01/07 13:19:50;;;;;;;19.77;9.63;;;1.30;99.90;;;;;;5132238;27;20054;-81
2022/01/07 13:22:41;;;;;;;14.35;8.43;;;1.30;99.90;;;;;;5112543;27;20051;-83
2022/01/07 13:25:31;;;;;;;14.07;8.68;;;1.30;99.90;;;;;;5129802;27;20663;-81
2022/01/07 13:28:38;;;;;;;17.80;9.45;;;1.40;99.90;;;;;;5096284;27;20172;-82
2022/01/07 13:31:33;;;;;;;15.43;8.90;;;1.30;99.90;;;;;;5137887;27;20046;-80
2022/01/07 13:34:26;;;;;;;13.95;8.77;;;1.20;99.90;;;;;;5137822;27;20035;-82
2022/01/07 13:37:19;;;;;;;15.48;9.07;;;1.20;99.90;;;;;;5101559;27;20061;-82
2022/01/07 13:40:12;;;;;;;15.75;8.75;;;1.30;99.90;;;;;;5131317;27;20038;-83
2022/01/07 13:43:13;;;;;;;17.52;9.27;;;1.70;99.90;;;;;;5084820;28;20043;-81
2022/01/07 13:46:23;;;;;;;14.55;9.50;;;1.70;99.90;;;;;;5131338;27;20131;-83
2022/01/07 13:49:11;;;;;;;12.40;8.13;;;1.80;99.90;;;;;;5123548;27;20183;-82
2022/01/07 13:52:03;;;;;;;20.70;9.32;;;2.00;99.90;;;;;;5130724;27;20127;-82
2022/01/07 13:54:51;;;;;;;16.10;9.52;;;1.80;99.90;;;;;;5125368;27;20046;-80
2022/01/07 13:57:39;;;;;;;14.40;7.85;;;1.60;99.90;;;;;;5129189;27;20476;-81
2022/01/07 14:00:34;;;;;;;15.00;8.70;;;1.30;99.90;;;;;;5119145;27;20053;-82
2022/01/07 14:03:22;;;;;;;15.32;8.75;;;1.30;99.90;;;;;;5149732;27;20151;-81
2022/01/07 14:06:09;;;;;;;18.38;9.40;;;1.20;99.90;;;;;;5120969;27;20066;-80
2022/01/07 14:09:33;;;;;;;19.75;9.27;;;1.20;99.90;;;;;;5130126;27;20038;-83
2022/01/07 14:12:24;;;;;;;14.10;9.20;;;1.30;99.90;;;;;;5123800;27;20035;-81
2022/01/07 14:15:14;;;;;;;14.80;8.48;;;1.30;99.90;;;;;;5109894;27;20035;-80
2022/01/07 14:18:15;;;;;;;17.05;8.88;;;1.20;99.90;;;;;;5110449;27;20047;-82
2022/01/07 14:21:05;;;;;;;16.17;9.02;;;1.20;99.90;;;;;;5133475;27;20054;-83
2022/01/07 14:23:54;;;;;;;19.45;8.82;;;1.20;99.90;;;;;;5117804;27;20058;-81
2022/01/07 14:26:44;;;;;;;16.02;9.65;;;1.20;99.90;;;;;;5111103;28;20047;-82
2022/01/07 14:29:32;;;;;;;16.52;8.90;;;1.20;99.90;;;;;;5117354;27;20467;-80
2022/01/07 14:32:20;;;;;;;17.77;8.80;;;1.20;99.90;;;;;;5118326;27;20058;-82
2022/01/07 14:35:14;;;;;;;15.05;7.95;;;1.20;99.90;;;;;;5121300;27;20047;-82
2022/01/07 14:38:07;;;;;;;19.95;9.65;;;1.10;99.90;;;;;;5128260;27;20475;-82
2022/01/07 14:40:57;;;;;;;16.27;8.23;;;1.10;99.90;;;;;;5103702;28;20602;-83
2022/01/07 14:43:44;;;;;;;15.15;8.55;;;1.10;99.90;;;;;;5093151;27;20126;-83
2022/01/07 14:46:32;;;;;;;10.40;7.43;;;1.00;99.90;;;;;;5111940;28;20078;-81
2022/01/07 14:49:19;;;;;;;12.95;7.45;;;1.10;99.90;;;;;;5091957;28;20055;-81
2022/01/07 14:52:11;;;;;;;17.55;8.50;;;1.00;99.90;;;;;;5088323;28;20354;-82
2022/01/07 14:54:58;;;;;;;16.80;7.22;;;1.00;99.90;;;;;;5098439;28;20128;-81
2022/01/07 14:57:45;;;;;;;13.13;6.63;;;1.00;99.90;;;;;;5103602;28;20043;-82
2022/01/07 15:00:34;;;;;;;13.23;6.53;;;1.00;99.90;;;;;;5120969;28;20071;-80